Time;durP1;ratioP1;P1;durP2;ratioP2;P2;SDS_P1;SDS_P2;PMS_P1;PMS_P2;Temp;Humidity;BMP_temperature;BMP_pressure;BME280_temperature;BME280_humidity;BME280_pressure;Samples;Min_cycle;Max_cycle;Signal;HPM_P1;HPM_P2
2021/12/02 00:00:43;;;;;;;10.67;4.90;;;;;;;;;;5039161;28;20235;-66
2021/12/02 00:03:10;;;;;;;11.20;5.57;;;;;;;;;;5031187;28;20228;-66
2021/12/02 00:05:35;;;;;;;9.27;4.83;;;;;;;;;;5045579;28;20632;-66
2021/12/02 00:08:01;;;;;;;8.73;5.00;;;;;;;;;;5032554;28;20227;-65
2021/12/02 00:10:31;;;;;;;9.53;4.93;;;;;;;;;;5031266;28;20600;-65
2021/12/02 00:12:57;;;;;;;7.83;4.50;;;;;;;;;;5035205;28;20721;-65
2021/12/02 00:15:28;;;;;;;8.97;5.13;;;;;;;;;;5038959;28;21167;-66
2021/12/02 00:18:18;;;;;;;10.70;5.13;;;;;;;;;;5027443;28;20342;-66
2021/12/02 00:23:37;;;;;;;7.60;4.70;;;;;;;;;;5028212;28;20297;-66
2021/12/02 00:26:14;;;;;;;7.50;4.97;;;;;;;;;;5015507;28;20296;-66
2021/12/02 00:28:40;;;;;;;6.30;5.07;;;;;;;;;;4988228;28;20231;-65
2021/12/02 00:31:06;;;;;;;8.53;4.97;;;;;;;;;;5021621;28;20952;-66
2021/12/02 00:33:32;;;;;;;6.87;4.90;;;;;;;;;;5037871;28;20243;-66
2021/12/02 00:35:58;;;;;;;9.17;5.00;;;;;;;;;;5043152;28;20297;-66
2021/12/02 00:38:24;;;;;;;7.97;4.70;;;;;;;;;;5046299;28;21373;-66
2021/12/02 00:40:50;;;;;;;8.83;5.37;;;;;;;;;;5035350;28;20819;-66
2021/12/02 00:43:16;;;;;;;12.30;5.90;;;;;;;;;;5021628;28;20688;-65
2021/12/02 00:45:42;;;;;;;10.53;6.03;;;;;;;;;;5044403;28;20230;-65
2021/12/02 00:48:09;;;;;;;13.20;6.03;;;;;;;;;;5024621;28;20240;-65
2021/12/02 00:50:35;;;;;;;9.70;5.80;;;;;;;;;;5040258;28;20236;-65
2021/12/02 00:53:01;;;;;;;10.90;6.20;;;;;;;;;;5050092;28;20251;-66
2021/12/02 00:55:27;;;;;;;11.17;5.97;;;;;;;;;;5030467;28;20643;-66
2021/12/02 00:57:53;;;;;;;8.90;6.80;;;;;;;;;;5052444;28;20728;-66
2021/12/02 01:00:19;;;;;;;10.30;6.70;;;;;;;;;;5029804;28;20234;-65
2021/12/02 01:02:45;;;;;;;11.30;6.90;;;;;;;;;;5038144;28;20227;-66
2021/12/02 01:05:11;;;;;;;10.60;7.03;;;;;;;;;;5029126;28;20244;-65
2021/12/02 01:07:37;;;;;;;10.33;6.77;;;;;;;;;;5040134;27;20322;-66
2021/12/02 01:10:04;;;;;;;9.27;6.80;;;;;;;;;;5038486;28;20246;-66
2021/12/02 01:12:30;;;;;;;11.23;7.57;;;;;;;;;;5049731;28;20227;-64
2021/12/02 01:14:56;;;;;;;9.67;7.57;;;;;;;;;;5052524;28;20237;-65
2021/12/02 01:17:22;;;;;;;9.67;7.13;;;;;;;;;;5051318;28;20230;-66
2021/12/02 01:19:48;;;;;;;13.27;7.73;;;;;;;;;;5021126;28;20235;-65
2021/12/02 01:22:14;;;;;;;11.73;8.07;;;;;;;;;;5022118;28;20377;-65
2021/12/02 01:24:40;;;;;;;11.23;7.30;;;;;;;;;;5026416;28;20223;-65
2021/12/02 01:27:07;;;;;;;9.17;6.83;;;;;;;;;;5035074;28;20235;-65
2021/12/02 01:29:33;;;;;;;10.33;7.87;;;;;;;;;;5042153;28;20239;-65
2021/12/02 01:32:04;;;;;;;13.80;8.33;;;;;;;;;;5039460;28;20273;-65
2021/12/02 01:34:30;;;;;;;11.50;8.03;;;;;;;;;;5037351;28;20232;-65
2021/12/02 01:36:56;;;;;;;12.17;8.30;;;;;;;;;;5034496;28;20227;-65
2021/12/02 01:39:22;;;;;;;12.07;8.03;;;;;;;;;;5024518;28;20241;-66
2021/12/02 01:41:48;;;;;;;11.97;8.53;;;;;;;;;;5036574;28;20251;-66
2021/12/02 01:44:15;;;;;;;11.07;7.90;;;;;;;;;;5021144;28;20225;-65
2021/12/02 01:46:42;;;;;;;11.50;8.10;;;;;;;;;;5025496;28;20232;-65
2021/12/02 01:49:09;;;;;;;12.57;8.40;;;;;;;;;;5040023;28;20311;-65
2021/12/02 01:51:42;;;;;;;9.70;7.57;;;;;;;;;;5031621;28;20246;-66
2021/12/02 01:54:19;;;;;;;15.27;9.07;;;;;;;;;;5034555;28;20320;-65
2021/12/02 01:56:49;;;;;;;12.67;8.30;;;;;;;;;;5035282;28;20332;-65
2021/12/02 01:59:19;;;;;;;15.73;8.80;;;;;;;;;;5037845;28;20228;-66
2021/12/02 02:01:45;;;;;;;11.00;8.30;;;;;;;;;;5025543;28;20256;-66
2021/12/02 02:04:11;;;;;;;15.43;8.43;;;;;;;;;;5030099;28;20231;-66
2021/12/02 02:06:41;;;;;;;12.53;8.77;;;;;;;;;;5027566;28;20318;-66
2021/12/02 02:09:07;;;;;;;14.63;8.40;;;;;;;;;;5036090;28;20687;-65
2021/12/02 02:11:33;;;;;;;12.90;8.80;;;;;;;;;;5045165;28;20235;-66
2021/12/02 02:14:00;;;;;;;12.13;9.17;;;;;;;;;;5039936;28;20296;-66
2021/12/02 02:16:26;;;;;;;12.07;9.20;;;;;;;;;;5024481;28;20238;-66
2021/12/02 02:18:52;;;;;;;12.20;9.40;;;;;;;;;;5050048;28;20238;-65
2021/12/02 02:21:20;;;;;;;14.00;8.97;;;;;;;;;;5022928;28;20223;-66
2021/12/02 02:23:51;;;;;;;10.07;8.73;;;;;;;;;;5027193;28;20235;-66
2021/12/02 02:26:24;;;;;;;18.07;9.50;;;;;;;;;;5020921;28;20283;-66
2021/12/02 02:28:50;;;;;;;17.33;9.40;;;;;;;;;;5034480;28;20226;-66
2021/12/02 02:31:16;;;;;;;13.27;9.30;;;;;;;;;;5032087;28;20250;-65
2021/12/02 02:33:43;;;;;;;13.70;8.93;;;;;;;;;;5034086;28;20301;-66
2021/12/02 02:36:10;;;;;;;10.77;8.37;;;;;;;;;;5045203;28;20230;-65
2021/12/02 02:38:36;;;;;;;13.57;8.47;;;;;;;;;;5053809;28;20230;-65
2021/12/02 02:41:03;;;;;;;18.23;8.63;;;;;;;;;;5036066;28;23378;-65
2021/12/02 02:43:32;;;;;;;12.83;8.47;;;;;;;;;;5036159;28;20227;-65
2021/12/02 02:45:58;;;;;;;13.50;8.33;;;;;;;;;;5045380;28;20719;-66
2021/12/02 02:48:24;;;;;;;13.73;8.83;;;;;;;;;;5034508;28;20241;-65
2021/12/02 02:50:50;;;;;;;11.77;8.10;;;;;;;;;;5028596;28;20698;-65
2021/12/02 02:53:19;;;;;;;12.03;8.93;;;;;;;;;;5055180;28;20231;-65
2021/12/02 02:55:53;;;;;;;13.07;8.83;;;;;;;;;;5048505;28;21565;-66
2021/12/02 03:01:23;;;;;;;13.90;9.70;;;;;;;;;;5044193;28;20226;-65
2021/12/02 03:06:35;;;;;;;13.93;8.73;;;;;;;;;;5017655;28;20288;-66
2021/12/02 03:09:06;;;;;;;13.70;9.10;;;;;;;;;;5026084;28;20229;-65
2021/12/02 03:11:40;;;;;;;14.13;9.70;;;;;;;;;;5053326;28;20239;-66
2021/12/02 03:14:11;;;;;;;13.50;9.53;;;;;;;;;;5042944;28;20449;-65
2021/12/02 03:16:44;;;;;;;15.67;9.10;;;;;;;;;;5051467;28;20214;-65
2021/12/02 03:19:10;;;;;;;14.47;8.97;;;;;;;;;;5052008;28;20252;-66
2021/12/02 03:21:36;;;;;;;11.27;8.87;;;;;;;;;;5052264;28;20227;-66
2021/12/02 03:24:02;;;;;;;12.87;8.47;;;;;;;;;;5052292;28;20732;-65
2021/12/02 03:26:29;;;;;;;14.50;8.00;;;;;;;;;;5037742;28;20364;-66
2021/12/02 03:28:55;;;;;;;15.67;8.27;;;;;;;;;;5044078;28;20215;-65
2021/12/02 03:31:21;;;;;;;12.57;7.57;;;;;;;;;;5045461;28;20228;-65
2021/12/02 03:33:47;;;;;;;13.40;7.93;;;;;;;;;;5047689;28;20848;-66
2021/12/02 03:36:14;;;;;;;10.33;7.53;;;;;;;;;;5039732;28;20301;-66
2021/12/02 03:38:40;;;;;;;12.73;7.90;;;;;;;;;;5034312;28;20238;-65
2021/12/02 03:41:06;;;;;;;11.27;7.27;;;;;;;;;;5034056;28;20239;-66
2021/12/02 03:43:35;;;;;;;13.33;7.50;;;;;;;;;;5016674;28;20651;-65
2021/12/02 03:46:01;;;;;;;8.47;6.57;;;;;;;;;;5043193;28;20234;-66
2021/12/02 03:48:27;;;;;;;11.17;7.03;;;;;;;;;;5035749;28;20227;-65
2021/12/02 03:50:53;;;;;;;9.57;6.07;;;;;;;;;;5031753;28;20316;-67
2021/12/02 03:53:19;;;;;;;9.10;5.57;;;;;;;;;;5039791;28;20376;-66
2021/12/02 03:55:45;;;;;;;9.20;5.47;;;;;;;;;;5041071;28;20247;-66
2021/12/02 03:58:11;;;;;;;9.53;5.93;;;;;;;;;;5037374;28;20765;-67
2021/12/02 04:00:37;;;;;;;8.73;5.27;;;;;;;;;;5030113;28;20235;-66
2021/12/02 04:03:03;;;;;;;9.90;4.93;;;;;;;;;;5043345;28;20238;-67
2021/12/02 04:05:29;;;;;;;8.03;4.40;;;;;;;;;;5051532;28;20232;-66
2021/12/02 04:07:55;;;;;;;5.83;3.90;;;;;;;;;;5041818;28;20704;-66
2021/12/02 04:10:22;;;;;;;7.67;3.67;;;;;;;;;;5044638;28;20231;-66
2021/12/02 04:15:24;;;;;;;6.10;3.20;;;;;;;;;;5050099;28;20350;-65
2021/12/02 04:17:51;;;;;;;6.37;3.60;;;;;;;;;;5047109;28;20255;-66
2021/12/02 04:20:17;;;;;;;4.90;2.90;;;;;;;;;;5043106;28;20223;-65
2021/12/02 04:22:43;;;;;;;5.13;2.70;;;;;;;;;;5045677;28;20235;-65
2021/12/02 04:25:10;;;;;;;7.30;2.90;;;;;;;;;;5051335;28;20236;-65
2021/12/02 04:27:36;;;;;;;7.03;2.80;;;;;;;;;;5047206;28;20253;-66
2021/12/02 04:30:03;;;;;;;5.27;2.63;;;;;;;;;;5047592;28;20265;-66
2021/12/02 04:32:29;;;;;;;4.93;2.70;;;;;;;;;;5046411;28;20258;-66
2021/12/02 04:34:55;;;;;;;5.97;3.20;;;;;;;;;;5052651;28;20323;-66
2021/12/02 04:37:21;;;;;;;8.27;3.77;;;;;;;;;;5051095;28;20593;-66
2021/12/02 04:39:47;;;;;;;6.97;4.00;;;;;;;;;;5044546;28;20231;-65
2021/12/02 04:42:13;;;;;;;7.53;4.77;;;;;;;;;;5055959;28;20232;-65
2021/12/02 04:44:39;;;;;;;7.17;5.43;;;;;;;;;;5049186;28;20236;-66
2021/12/02 04:47:04;;;;;;;7.73;5.50;;;;;;;;;;5050764;28;20282;-66
2021/12/02 04:49:30;;;;;;;7.43;5.63;;;;;;;;;;5050394;28;20245;-65
2021/12/02 04:51:56;;;;;;;6.27;5.27;;;;;;;;;;5041009;28;20677;-65
2021/12/02 04:54:22;;;;;;;5.87;4.90;;;;;;;;;;5052811;28;20594;-65
2021/12/02 04:56:48;;;;;;;9.40;5.13;;;;;;;;;;5048417;28;20718;-65
2021/12/02 04:59:14;;;;;;;8.43;5.47;;;;;;;;;;5048042;28;20775;-66
2021/12/02 05:01:40;;;;;;;6.13;4.37;;;;;;;;;;5042473;28;20725;-67
2021/12/02 05:04:06;;;;;;;12.77;4.90;;;;;;;;;;5041308;28;20718;-67
2021/12/02 05:06:32;;;;;;;9.07;5.10;;;;;;;;;;5044755;28;20696;-64
2021/12/02 05:08:58;;;;;;;8.77;4.67;;;;;;;;;;5033030;28;20598;-65
2021/12/02 05:11:24;;;;;;;6.17;4.60;;;;;;;;;;5048526;28;20240;-65
2021/12/02 05:13:50;;;;;;;7.73;4.40;;;;;;;;;;5038829;28;20243;-66
2021/12/02 05:16:17;;;;;;;9.57;4.50;;;;;;;;;;5038492;28;20281;-65
2021/12/02 05:18:43;;;;;;;6.13;3.80;;;;;;;;;;5038718;28;20231;-65
2021/12/02 05:21:08;;;;;;;5.73;3.60;;;;;;;;;;5049235;28;20231;-65
2021/12/02 05:23:34;;;;;;;7.93;4.07;;;;;;;;;;5033050;28;20313;-64
2021/12/02 05:26:01;;;;;;;6.40;3.63;;;;;;;;;;5025477;28;20228;-65
2021/12/02 05:28:27;;;;;;;5.47;3.40;;;;;;;;;;5037516;28;20252;-65
2021/12/02 05:30:53;;;;;;;11.67;4.00;;;;;;;;;;5044522;28;20235;-65
2021/12/02 05:33:19;;;;;;;8.63;3.57;;;;;;;;;;5039492;28;20231;-65
2021/12/02 05:35:45;;;;;;;4.13;3.03;;;;;;;;;;5035937;28;20368;-66
2021/12/02 05:38:11;;;;;;;6.37;3.20;;;;;;;;;;5032820;28;20224;-65
2021/12/02 05:40:37;;;;;;;5.93;3.33;;;;;;;;;;5039721;28;20266;-65
2021/12/02 05:43:03;;;;;;;8.93;3.90;;;;;;;;;;5040093;28;20328;-65
2021/12/02 05:45:29;;;;;;;8.13;3.47;;;;;;;;;;5037616;28;20267;-65
2021/12/02 05:47:55;;;;;;;9.90;3.30;;;;;;;;;;5041734;28;20293;-65
2021/12/02 05:50:21;;;;;;;7.27;3.50;;;;;;;;;;5033882;28;20705;-64
2021/12/02 05:52:47;;;;;;;5.67;3.00;;;;;;;;;;5033897;28;20222;-65
2021/12/02 05:55:13;;;;;;;6.47;3.60;;;;;;;;;;5040347;28;20227;-66
2021/12/02 05:57:39;;;;;;;9.07;3.90;;;;;;;;;;5037957;28;20229;-64
2021/12/02 06:00:06;;;;;;;6.07;3.63;;;;;;;;;;5046553;28;20667;-64
2021/12/02 06:02:35;;;;;;;8.37;3.53;;;;;;;;;;5046902;28;20243;-66
2021/12/02 06:05:01;;;;;;;5.30;3.30;;;;;;;;;;5042374;28;20498;-64
2021/12/02 06:07:27;;;;;;;3.77;2.90;;;;;;;;;;5037061;28;20228;-64
2021/12/02 06:09:54;;;;;;;6.07;2.97;;;;;;;;;;5043303;28;20317;-61
2021/12/02 06:12:20;;;;;;;8.27;3.10;;;;;;;;;;5046315;28;20733;-63
2021/12/02 06:14:45;;;;;;;9.60;2.70;;;;;;;;;;5043078;28;20226;-65
2021/12/02 06:17:11;;;;;;;6.57;3.07;;;;;;;;;;5030867;28;20319;-65
2021/12/02 06:19:37;;;;;;;8.17;3.60;;;;;;;;;;5039016;28;20677;-66
2021/12/02 06:22:04;;;;;;;5.23;3.77;;;;;;;;;;5045646;28;20251;-65
2021/12/02 06:24:43;;;;;;;4.40;3.97;;;;;;;;;;5045104;28;24591;-64
2021/12/02 06:27:09;;;;;;;7.77;4.83;;;;;;;;;;5030144;28;20662;-65
2021/12/02 06:29:35;;;;;;;7.63;4.30;;;;;;;;;;5042123;28;20223;-65
2021/12/02 06:32:03;;;;;;;6.77;4.60;;;;;;;;;;5037456;28;20224;-65
2021/12/02 06:34:29;;;;;;;9.53;4.30;;;;;;;;;;5040257;28;20223;-64
2021/12/02 06:36:55;;;;;;;9.53;5.00;;;;;;;;;;5039951;28;20247;-64
2021/12/02 06:39:21;;;;;;;5.13;4.63;;;;;;;;;;5044709;28;20246;-63
2021/12/02 06:41:47;;;;;;;6.10;4.60;;;;;;;;;;5032047;28;20236;-65
2021/12/02 06:44:13;;;;;;;9.13;4.57;;;;;;;;;;5027972;28;20226;-65
2021/12/02 06:46:39;;;;;;;7.57;5.10;;;;;;;;;;5039243;28;20242;-66
2021/12/02 06:49:05;;;;;;;6.17;5.00;;;;;;;;;;5043390;28;20616;-65
2021/12/02 06:51:31;;;;;;;5.67;4.27;;;;;;;;;;5047328;28;20239;-66
2021/12/02 06:53:57;;;;;;;7.77;5.07;;;;;;;;;;5049004;28;20288;-64
2021/12/02 06:56:23;;;;;;;8.83;4.70;;;;;;;;;;5048872;28;20249;-65
2021/12/02 06:58:49;;;;;;;11.83;4.90;;;;;;;;;;5051662;28;20228;-65
2021/12/02 07:01:15;;;;;;;11.33;4.30;;;;;;;;;;5038924;28;20276;-64
2021/12/02 07:03:41;;;;;;;7.97;4.77;;;;;;;;;;5042591;28;20324;-64
2021/12/02 07:06:07;;;;;;;8.37;4.37;;;;;;;;;;5040783;28;22131;-64
2021/12/02 07:08:33;;;;;;;6.03;4.20;;;;;;;;;;5027748;28;20239;-64
2021/12/02 07:11:00;;;;;;;7.27;4.67;;;;;;;;;;5044785;28;21217;-65
2021/12/02 07:13:26;;;;;;;9.97;4.37;;;;;;;;;;5044865;28;21818;-65
2021/12/02 07:15:53;;;;;;;10.73;4.87;;;;;;;;;;5039941;28;20635;-65
2021/12/02 07:18:19;;;;;;;7.27;4.13;;;;;;;;;;5048049;28;20245;-65
2021/12/02 07:20:46;;;;;;;6.90;3.87;;;;;;;;;;5048070;28;20224;-64
2021/12/02 07:23:13;;;;;;;6.30;4.10;;;;;;;;;;5047500;28;20651;-64
2021/12/02 07:25:40;;;;;;;4.23;3.57;;;;;;;;;;5053321;28;20255;-65
2021/12/02 07:28:06;;;;;;;5.10;3.37;;;;;;;;;;5031789;28;20219;-65
2021/12/02 07:30:32;;;;;;;3.93;3.07;;;;;;;;;;5049049;28;20234;-65
2021/12/02 07:32:58;;;;;;;5.30;3.10;;;;;;;;;;5052803;28;20793;-66
2021/12/02 07:35:24;;;;;;;5.00;3.17;;;;;;;;;;5047501;28;20715;-66
2021/12/02 07:37:51;;;;;;;5.73;3.00;;;;;;;;;;5049686;28;20288;-65
2021/12/02 07:40:18;;;;;;;6.13;2.77;;;;;;;;;;5051785;28;20313;-66
2021/12/02 07:42:44;;;;;;;4.90;2.80;;;;;;;;;;5043497;28;20240;-65
2021/12/02 07:45:10;;;;;;;7.07;3.27;;;;;;;;;;5041525;28;20317;-64
2021/12/02 07:47:38;;;;;;;6.27;3.47;;;;;;;;;;5045296;28;20277;-67
2021/12/02 07:50:04;;;;;;;4.60;3.10;;;;;;;;;;5025336;28;20239;-66
2021/12/02 07:52:30;;;;;;;7.07;3.37;;;;;;;;;;5032476;28;20308;-66
2021/12/02 07:54:56;;;;;;;4.63;3.50;;;;;;;;;;5037295;28;20230;-66
2021/12/02 07:57:22;;;;;;;4.33;3.40;;;;;;;;;;5042918;28;20227;-66
2021/12/02 07:59:51;;;;;;;3.60;3.13;;;;;;;;;;5051643;28;20307;-67
2021/12/02 08:02:17;;;;;;;5.57;3.93;;;;;;;;;;5049975;28;20220;-65
2021/12/02 08:04:43;;;;;;;8.17;4.20;;;;;;;;;;5040999;28;20228;-64
2021/12/02 08:07:09;;;;;;;4.03;3.63;;;;;;;;;;5038350;28;20309;-65
2021/12/02 08:09:35;;;;;;;5.90;3.63;;;;;;;;;;5037029;28;20227;-65
2021/12/02 08:12:01;;;;;;;6.17;3.90;;;;;;;;;;5036889;28;20247;-66
2021/12/02 08:14:27;;;;;;;4.17;3.60;;;;;;;;;;5035842;28;20373;-67
2021/12/02 08:16:53;;;;;;;4.80;4.00;;;;;;;;;;5034718;28;20268;-66
2021/12/02 08:19:20;;;;;;;6.00;3.90;;;;;;;;;;5035570;28;20262;-67
2021/12/02 08:21:46;;;;;;;5.73;3.97;;;;;;;;;;5040936;28;20220;-67
2021/12/02 08:24:12;;;;;;;5.27;3.53;;;;;;;;;;5044713;28;20775;-66
2021/12/02 08:26:38;;;;;;;5.93;3.70;;;;;;;;;;5036369;28;20234;-67
2021/12/02 08:29:04;;;;;;;4.80;3.47;;;;;;;;;;5031588;28;20894;-66
2021/12/02 08:31:30;;;;;;;6.23;4.10;;;;;;;;;;5037271;28;20756;-67
2021/12/02 08:33:56;;;;;;;5.10;3.43;;;;;;;;;;5039872;28;20230;-67
2021/12/02 08:36:24;;;;;;;4.57;3.73;;;;;;;;;;5039457;28;20266;-66
2021/12/02 08:38:51;;;;;;;3.93;3.57;;;;;;;;;;5047921;28;20791;-66
2021/12/02 08:41:18;;;;;;;4.77;3.77;;;;;;;;;;5030043;28;20307;-66
2021/12/02 08:43:44;;;;;;;3.97;3.57;;;;;;;;;;5015100;28;20236;-67
2021/12/02 08:46:10;;;;;;;5.73;3.90;;;;;;;;;;5015932;28;20599;-66
2021/12/02 08:48:36;;;;;;;6.97;4.07;;;;;;;;;;5007142;28;21384;-66
2021/12/02 08:51:02;;;;;;;6.50;4.33;;;;;;;;;;5015417;28;20263;-66
2021/12/02 08:53:28;;;;;;;4.90;4.20;;;;;;;;;;5023737;28;20323;-66
2021/12/02 08:55:54;;;;;;;4.73;4.20;;;;;;;;;;5016314;28;20322;-67
2021/12/02 08:58:20;;;;;;;4.67;4.20;;;;;;;;;;5013712;28;20320;-66
2021/12/02 09:00:46;;;;;;;5.47;4.50;;;;;;;;;;5012343;28;20232;-66
2021/12/02 09:03:14;;;;;;;4.57;4.17;;;;;;;;;;5022060;28;20235;-66
2021/12/02 09:05:40;;;;;;;4.57;4.17;;;;;;;;;;5020471;28;20228;-66
2021/12/02 09:08:06;;;;;;;4.50;4.10;;;;;;;;;;5018639;28;20801;-66
2021/12/02 09:10:33;;;;;;;4.50;4.03;;;;;;;;;;5027832;28;20237;-67
2021/12/02 09:12:59;;;;;;;4.77;4.30;;;;;;;;;;5021705;28;20232;-66
2021/12/02 09:15:25;;;;;;;4.03;3.73;;;;;;;;;;5023233;28;20220;-66
2021/12/02 09:17:51;;;;;;;4.63;4.23;;;;;;;;;;5031342;28;20229;-66
2021/12/02 09:20:17;;;;;;;4.53;4.10;;;;;;;;;;5013158;28;21332;-67
2021/12/02 09:22:43;;;;;;;4.67;4.10;;;;;;;;;;5015049;28;20699;-67
2021/12/02 09:25:10;;;;;;;5.33;4.00;;;;;;;;;;5021885;28;20531;-66
2021/12/02 09:27:36;;;;;;;4.87;4.30;;;;;;;;;;5021702;28;20299;-65
2021/12/02 09:30:02;;;;;;;5.63;4.40;;;;;;;;;;5015747;28;20228;-67
2021/12/02 09:32:28;;;;;;;5.37;4.50;;;;;;;;;;5028455;28;20223;-65
2021/12/02 09:34:54;;;;;;;5.40;4.67;;;;;;;;;;5025895;28;20716;-66
2021/12/02 09:37:20;;;;;;;4.93;4.40;;;;;;;;;;5019409;28;20354;-66
2021/12/02 09:39:46;;;;;;;4.80;4.37;;;;;;;;;;5017525;28;20224;-66
2021/12/02 09:42:12;;;;;;;5.07;4.33;;;;;;;;;;5042197;28;20317;-67
2021/12/02 09:44:38;;;;;;;5.17;4.00;;;;;;;;;;5049933;28;20235;-67
2021/12/02 09:47:04;;;;;;;4.47;3.40;;;;;;;;;;5048805;28;20219;-66
2021/12/02 09:49:30;;;;;;;4.77;3.43;;;;;;;;;;5027831;28;20242;-67
2021/12/02 09:52:02;;;;;;;3.77;3.33;;;;;;;;;;5052795;28;20238;-66
2021/12/02 09:54:56;;;;;;;4.00;3.47;;;;;;;;;;5048333;28;20688;-66
2021/12/02 09:57:20;;;;;;;3.80;3.10;;;;;;;;;;5051118;28;20241;-67
2021/12/02 09:59:51;;;;;;;5.00;3.80;;;;;;;;;;5054526;28;20711;-67
2021/12/02 10:02:19;;;;;;;3.60;3.30;;;;;;;;;;5044099;28;21198;-66
2021/12/02 10:07:48;;;;;;;4.77;3.73;;;;;;;;;;5041807;28;20235;-67
2021/12/02 10:10:17;;;;;;;5.13;4.00;;;;;;;;;;5025795;28;20297;-67
2021/12/02 10:13:07;;;;;;;5.00;4.33;;;;;;;;;;5048659;28;20348;-66
2021/12/02 10:15:36;;;;;;;6.63;4.47;;;;;;;;;;5046958;28;20766;-66
2021/12/02 10:18:09;;;;;;;5.90;4.10;;;;;;;;;;5041924;28;20248;-67
2021/12/02 10:20:41;;;;;;;4.60;3.90;;;;;;;;;;5052131;28;20229;-66
2021/12/02 10:23:17;;;;;;;4.77;3.30;;;;;;;;;;5054392;28;20702;-67
2021/12/02 10:25:49;;;;;;;4.60;3.43;;;;;;;;;;5047779;28;20231;-66
2021/12/02 10:28:15;;;;;;;6.90;3.57;;;;;;;;;;5051548;28;20234;-67
2021/12/02 10:30:52;;;;;;;4.33;3.53;;;;;;;;;;5030354;28;20235;-67
2021/12/02 10:33:38;;;;;;;5.37;3.60;;;;;;;;;;5048964;28;20234;-67
2021/12/02 10:36:05;;;;;;;5.87;4.13;;;;;;;;;;5049196;28;20235;-67
2021/12/02 10:38:58;;;;;;;5.60;3.23;;;;;;;;;;5038924;28;20226;-67
2021/12/02 10:41:24;;;;;;;4.60;3.90;;;;;;;;;;5043856;28;20249;-67
2021/12/02 10:44:09;;;;;;;5.67;4.10;;;;;;;;;;5056921;28;20531;-68
2021/12/02 10:46:35;;;;;;;6.57;4.23;;;;;;;;;;5051518;28;20226;-67
2021/12/02 10:49:01;;;;;;;5.67;3.80;;;;;;;;;;5058449;28;20227;-67
2021/12/02 10:51:35;;;;;;;7.10;3.83;;;;;;;;;;5032173;28;20250;-67
2021/12/02 10:54:01;;;;;;;4.30;3.37;;;;;;;;;;5056159;28;20237;-67
2021/12/02 10:56:31;;;;;;;4.13;2.93;;;;;;;;;;5052412;28;20234;-66
2021/12/02 10:58:57;;;;;;;4.77;3.00;;;;;;;;;;5060353;28;20237;-67
2021/12/02 11:01:49;;;;;;;4.57;2.90;;;;;;;;;;5053296;28;20235;-67
2021/12/02 11:04:15;;;;;;;4.33;2.63;;;;;;;;;;5048548;28;20231;-67
2021/12/02 11:06:42;;;;;;;4.47;2.63;;;;;;;;;;5047242;28;21017;-66
2021/12/02 11:09:24;;;;;;;4.20;2.73;;;;;;;;;;5051091;28;20223;-66
2021/12/02 11:12:06;;;;;;;3.43;2.63;;;;;;;;;;5046423;28;20242;-67
2021/12/02 11:14:32;;;;;;;6.73;2.93;;;;;;;;;;5051432;28;22588;-67
2021/12/02 11:17:08;;;;;;;3.03;2.53;;;;;;;;;;5041297;28;20227;-67
2021/12/02 11:19:34;;;;;;;6.23;2.70;;;;;;;;;;5023186;28;21928;-66
2021/12/02 11:22:07;;;;;;;5.47;2.60;;;;;;;;;;5053300;28;20235;-66
2021/12/02 11:24:33;;;;;;;5.87;2.60;;;;;;;;;;5056572;28;20609;-65
2021/12/02 11:27:09;;;;;;;4.50;2.43;;;;;;;;;;5043066;28;20330;-67
2021/12/02 11:29:50;;;;;;;5.03;2.53;;;;;;;;;;5045435;28;20309;-67
2021/12/02 11:32:27;;;;;;;4.80;2.40;;;;;;;;;;5051834;28;20264;-68
2021/12/02 11:35:12;;;;;;;3.20;2.30;;;;;;;;;;5058160;28;20369;-67
2021/12/02 11:37:38;;;;;;;2.87;2.23;;;;;;;;;;5057151;28;20696;-67
2021/12/02 11:40:06;;;;;;;5.17;2.87;;;;;;;;;;5048736;28;20254;-67
2021/12/02 11:42:32;;;;;;;3.77;2.37;;;;;;;;;;5046302;28;20230;-66
2021/12/02 11:44:58;;;;;;;3.30;2.30;;;;;;;;;;5046155;28;20238;-65
2021/12/02 11:47:24;;;;;;;3.20;2.33;;;;;;;;;;5037160;28;20239;-67
2021/12/02 11:49:50;;;;;;;5.03;2.30;;;;;;;;;;5036149;28;20223;-68
2021/12/02 11:52:17;;;;;;;5.47;2.53;;;;;;;;;;5044952;28;20242;-68
2021/12/02 11:54:43;;;;;;;3.77;2.70;;;;;;;;;;5049999;28;20223;-68
2021/12/02 11:57:09;;;;;;;6.30;2.20;;;;;;;;;;5043693;28;20245;-67
2021/12/02 11:59:35;;;;;;;2.63;2.10;;;;;;;;;;5047956;28;20223;-67
2021/12/02 12:02:01;;;;;;;4.60;2.40;;;;;;;;;;5045596;28;20235;-68
2021/12/02 12:04:27;;;;;;;4.37;2.40;;;;;;;;;;5053983;28;20240;-67
2021/12/02 12:06:53;;;;;;;4.10;2.53;;;;;;;;;;5047861;28;20917;-68
2021/12/02 12:09:21;;;;;;;4.33;2.50;;;;;;;;;;5054607;28;20235;-68
2021/12/02 12:11:50;;;;;;;5.67;2.83;;;;;;;;;;5052460;28;20895;-68
2021/12/02 12:14:19;;;;;;;3.23;2.60;;;;;;;;;;5053366;28;20231;-67
2021/12/02 12:16:46;;;;;;;4.27;2.93;;;;;;;;;;5055088;28;20231;-67
2021/12/02 12:19:29;;;;;;;5.97;2.93;;;;;;;;;;5052321;28;20245;-67
2021/12/02 12:21:56;;;;;;;4.93;2.80;;;;;;;;;;5034661;28;20234;-67
2021/12/02 12:24:41;;;;;;;4.63;3.60;;;;;;;;;;5034973;28;20337;-70
2021/12/02 12:27:14;;;;;;;5.33;3.53;;;;;;;;;;5043166;28;20275;-71
2021/12/02 12:29:40;;;;;;;4.30;3.40;;;;;;;;;;5025672;28;20254;-71
2021/12/02 12:32:14;;;;;;;5.10;4.00;;;;;;;;;;5040649;28;20271;-71
2021/12/02 12:37:21;;;;;;;3.60;3.30;;;;;;;;;;5026387;28;20321;-70
2021/12/02 12:40:07;;;;;;;6.17;3.60;;;;;;;;;;5037677;28;20288;-71
2021/12/02 12:42:33;;;;;;;7.23;3.70;;;;;;;;;;5030515;28;20237;-71
2021/12/02 12:44:59;;;;;;;7.33;3.20;;;;;;;;;;5029362;28;20244;-71
2021/12/02 12:47:44;;;;;;;5.70;3.30;;;;;;;;;;5025658;28;20341;-70
2021/12/02 12:50:26;;;;;;;4.07;3.10;;;;;;;;;;5038422;28;20239;-71
2021/12/02 12:52:53;;;;;;;4.60;3.00;;;;;;;;;;5036158;28;20223;-70
2021/12/02 12:55:19;;;;;;;3.43;3.13;;;;;;;;;;5043830;28;20639;-72
2021/12/02 12:58:04;;;;;;;3.73;2.80;;;;;;;;;;5037020;28;20277;-71
2021/12/02 13:00:41;;;;;;;3.73;2.70;;;;;;;;;;5035878;28;20238;-71
2021/12/02 13:03:11;;;;;;;6.07;3.27;;;;;;;;;;5034874;28;20231;-70
2021/12/02 13:05:44;;;;;;;4.83;3.13;;;;;;;;;;5013923;28;20230;-70
2021/12/02 13:08:21;;;;;;;3.40;2.80;;;;;;;;;;5027944;28;20219;-71
2021/12/02 13:10:50;;;;;;;5.13;3.00;;;;;;;;;;5033117;28;20269;-71
2021/12/02 13:13:22;;;;;;;4.33;2.80;;;;;;;;;;5048211;28;20239;-71
2021/12/02 13:15:48;;;;;;;5.23;3.10;;;;;;;;;;5040304;28;20231;-68
2021/12/02 13:18:41;;;;;;;3.30;3.00;;;;;;;;;;5034987;28;20289;-67
2021/12/02 13:21:18;;;;;;;6.93;3.30;;;;;;;;;;5027672;28;20242;-67
2021/12/02 13:23:55;;;;;;;7.23;3.33;;;;;;;;;;5034188;28;20231;-68
2021/12/02 13:26:21;;;;;;;5.57;3.57;;;;;;;;;;5039294;28;20235;-68
2021/12/02 13:28:48;;;;;;;3.70;3.30;;;;;;;;;;5032580;28;20234;-68
2021/12/02 13:31:14;;;;;;;3.30;3.00;;;;;;;;;;5037313;28;20232;-67
2021/12/02 13:33:41;;;;;;;3.60;3.20;;;;;;;;;;5026344;28;20251;-68
2021/12/02 13:36:09;;;;;;;5.93;3.60;;;;;;;;;;5012987;28;20231;-68
2021/12/02 13:38:35;;;;;;;3.93;3.30;;;;;;;;;;5027835;28;20231;-68
2021/12/02 13:41:14;;;;;;;5.97;3.30;;;;;;;;;;5033395;28;20246;-68
2021/12/02 13:44:03;;;;;;;5.70;3.50;;;;;;;;;;5027397;28;20564;-68
2021/12/02 13:46:32;;;;;;;5.87;3.40;;;;;;;;;;5033968;28;21377;-68
2021/12/02 13:49:00;;;;;;;4.33;3.30;;;;;;;;;;5018740;28;20262;-66
2021/12/02 13:54:19;;;;;;;5.83;3.90;;;;;;;;;;5020453;28;22724;-68
2021/12/02 13:56:44;;;;;;;5.40;3.87;;;;;;;;;;5036163;28;21062;-68
2021/12/02 13:59:15;;;;;;;4.73;3.77;;;;;;;;;;5040353;28;20231;-67
2021/12/02 14:01:51;;;;;;;7.13;4.37;;;;;;;;;;5037099;28;20215;-68
2021/12/02 14:04:17;;;;;;;4.10;3.80;;;;;;;;;;5020615;28;21095;-68
2021/12/02 14:06:43;;;;;;;4.20;3.80;;;;;;;;;;5002562;28;20252;-68
2021/12/02 14:09:13;;;;;;;4.70;3.80;;;;;;;;;;5018058;28;21172;-68
2021/12/02 14:11:39;;;;;;;5.83;4.07;;;;;;;;;;5023789;28;20984;-68
2021/12/02 14:14:05;;;;;;;9.40;4.47;;;;;;;;;;5027185;28;20238;-68
2021/12/02 14:16:31;;;;;;;5.60;4.30;;;;;;;;;;5023740;28;20223;-68
2021/12/02 14:18:58;;;;;;;5.70;3.60;;;;;;;;;;5013340;28;20230;-68
2021/12/02 14:21:24;;;;;;;5.67;4.03;;;;;;;;;;5022251;28;20614;-68
2021/12/02 14:23:50;;;;;;;4.57;3.97;;;;;;;;;;5035776;28;20238;-67
2021/12/02 14:26:17;;;;;;;5.87;4.03;;;;;;;;;;5016043;28;20705;-68
2021/12/02 14:28:43;;;;;;;4.23;3.70;;;;;;;;;;5024399;28;20326;-68
2021/12/02 14:31:10;;;;;;;5.17;4.13;;;;;;;;;;5039815;28;20841;-67
2021/12/02 14:33:42;;;;;;;5.37;4.13;;;;;;;;;;5009943;28;20235;-67
2021/12/02 14:36:09;;;;;;;4.63;3.47;;;;;;;;;;5028399;28;20282;-68
2021/12/02 14:38:36;;;;;;;7.67;4.40;;;;;;;;;;5032917;28;20799;-68
2021/12/02 14:41:12;;;;;;;5.60;3.93;;;;;;;;;;5035977;28;20250;-67
2021/12/02 14:43:45;;;;;;;7.70;4.60;;;;;;;;;;5025965;28;20733;-67
2021/12/02 14:46:26;;;;;;;8.87;4.67;;;;;;;;;;5018703;28;20728;-67
2021/12/02 14:49:03;;;;;;;4.90;4.00;;;;;;;;;;5015824;28;20235;-67
2021/12/02 14:51:29;;;;;;;4.77;3.70;;;;;;;;;;5028541;28;20231;-67
2021/12/02 14:53:56;;;;;;;5.87;3.70;;;;;;;;;;4998513;28;20518;-68
2021/12/02 14:56:29;;;;;;;5.93;4.03;;;;;;;;;;5022255;28;20231;-67
2021/12/02 14:59:05;;;;;;;5.07;4.00;;;;;;;;;;5019167;28;20238;-67
2021/12/02 15:01:31;;;;;;;6.70;3.80;;;;;;;;;;5012234;28;20966;-66
2021/12/02 15:03:57;;;;;;;4.77;3.70;;;;;;;;;;5017907;28;20247;-67
2021/12/02 15:06:36;;;;;;;5.20;3.50;;;;;;;;;;5021724;28;20276;-67